sensor_id;sensor_type;location;lat;lon;timestamp;pressure;altitude;pressure_sealevel;temperature;humidity
23172;BME280;11754;42.664;23.594;2022-08-11T00:00:04;95536.47;;;21.19;64.39
23172;BME280;11754;42.664;23.594;2022-08-11T00:02:34;95532.16;;;21.18;64.27
23172;BME280;11754;42.664;23.594;2022-08-11T00:05:04;95536.34;;;21.14;64.43
23172;BME280;11754;42.664;23.594;2022-08-11T00:07:31;95510.34;;;21.03;64.74
23172;BME280;11754;42.664;23.594;2022-08-11T00:09:57;95527.59;;;21.07;64.58
23172;BME280;11754;42.664;23.594;2022-08-11T00:12:23;95517.88;;;20.94;64.77
23172;BME280;11754;42.664;23.594;2022-08-11T00:14:58;95519.63;;;20.88;64.86
23172;BME280;11754;42.664;23.594;2022-08-11T00:17:29;95528.69;;;20.87;64.98
23172;BME280;11754;42.664;23.594;2022-08-11T00:20:03;95526.72;;;20.83;65.17
23172;BME280;11754;42.664;23.594;2022-08-11T00:22:29;95523.91;;;20.78;65.48
23172;BME280;11754;42.664;23.594;2022-08-11T00:24:56;95532.16;;;20.76;65.69
23172;BME280;11754;42.664;23.594;2022-08-11T00:27:35;95520.72;;;20.69;65.98
23172;BME280;11754;42.664;23.594;2022-08-11T00:30:02;95533.09;;;20.70;66.00
23172;BME280;11754;42.664;23.594;2022-08-11T00:32:28;95520.00;;;20.62;66.06
23172;BME280;11754;42.664;23.594;2022-08-11T00:34:56;95523.13;;;20.59;66.29
23172;BME280;11754;42.664;23.594;2022-08-11T00:37:22;95526.41;;;20.61;66.36
23172;BME280;11754;42.664;23.594;2022-08-11T00:39:50;95518.50;;;20.48;66.55
23172;BME280;11754;42.664;23.594;2022-08-11T00:42:49;95531.69;;;20.49;66.74
23172;BME280;11754;42.664;23.594;2022-08-11T00:50:56;95529.78;;;20.38;67.21
23172;BME280;11754;42.664;23.594;2022-08-11T00:53:29;95528.94;;;20.37;67.28
23172;BME280;11754;42.664;23.594;2022-08-11T01:02:05;95526.28;;;20.19;68.08
23172;BME280;11754;42.664;23.594;2022-08-11T01:10:47;95523.63;;;20.01;68.74
23172;BME280;11754;42.664;23.594;2022-08-11T01:36:37;95516.84;;;19.36;71.70
23172;BME280;11754;42.664;23.594;2022-08-11T01:45:35;95515.41;;;19.40;70.71
23172;BME280;11754;42.664;23.594;2022-08-11T01:48:15;95507.81;;;19.37;70.67
23172;BME280;11754;42.664;23.594;2022-08-11T01:59:09;95510.00;;;19.22;70.25
23172;BME280;11754;42.664;23.594;2022-08-11T02:01:53;95519.00;;;19.28;70.21
23172;BME280;11754;42.664;23.594;2022-08-11T02:04:35;95527.19;;;19.33;69.98
23172;BME280;11754;42.664;23.594;2022-08-11T02:07:25;95523.53;;;19.27;70.06
23172;BME280;11754;42.664;23.594;2022-08-11T02:13:29;95523.09;;;19.30;69.75
23172;BME280;11754;42.664;23.594;2022-08-11T02:19:07;95514.91;;;19.25;70.94
23172;BME280;11754;42.664;23.594;2022-08-11T02:22:00;95523.53;;;19.27;71.26
23172;BME280;11754;42.664;23.594;2022-08-11T02:27:25;95523.09;;;19.30;71.22
23172;BME280;11754;42.664;23.594;2022-08-11T02:30:07;95521.44;;;19.29;71.31
23172;BME280;11754;42.664;23.594;2022-08-11T02:32:53;95513.28;;;19.24;71.52
23172;BME280;11754;42.664;23.594;2022-08-11T02:38:48;95519.06;;;19.21;71.91
23172;BME280;11754;42.664;23.594;2022-08-11T02:47:10;95519.34;;;19.13;72.01
23172;BME280;11754;42.664;23.594;2022-08-11T02:49:57;95514.72;;;19.02;71.56
23172;BME280;11754;42.664;23.594;2022-08-11T02:53:16;95522.78;;;18.95;70.59
23172;BME280;11754;42.664;23.594;2022-08-11T02:55:26;95520.16;;;18.88;70.21
23172;BME280;11754;42.664;23.594;2022-08-11T02:57:58;95521.91;;;18.69;70.94
23172;BME280;11754;42.664;23.594;2022-08-11T03:00:29;95527.69;;;18.60;71.41
23172;BME280;11754;42.664;23.594;2022-08-11T03:05:36;95528.56;;;18.54;71.95
23172;BME280;11754;42.664;23.594;2022-08-11T03:11:11;95540.09;;;18.47;71.68
23172;BME280;11754;42.664;23.594;2022-08-11T03:22:58;95531.56;;;18.32;72.73
23172;BME280;11754;42.664;23.594;2022-08-11T03:28:26;95536.13;;;18.25;72.53
23172;BME280;11754;42.664;23.594;2022-08-11T03:34:07;95521.97;;;18.18;72.58
23172;BME280;11754;42.664;23.594;2022-08-11T03:37:03;95527.31;;;18.18;72.36
23172;BME280;11754;42.664;23.594;2022-08-11T03:39:57;95533.69;;;18.10;72.49
23172;BME280;11754;42.664;23.594;2022-08-11T03:45:41;95539.88;;;18.11;72.75
23172;BME280;11754;42.664;23.594;2022-08-11T03:48:28;95531.66;;;18.06;73.06
23172;BME280;11754;42.664;23.594;2022-08-11T03:51:24;95536.75;;;18.14;73.11
23172;BME280;11754;42.664;23.594;2022-08-11T04:08:35;95538.56;;;18.27;73.99
23172;BME280;11754;42.664;23.594;2022-08-11T04:17:35;95541.91;;;18.15;75.27
23172;BME280;11754;42.664;23.594;2022-08-11T04:22:52;95552.53;;;18.29;74.94
23172;BME280;11754;42.664;23.594;2022-08-11T04:25:48;95552.47;;;18.35;74.62
23172;BME280;11754;42.664;23.594;2022-08-11T04:34:21;95545.94;;;18.31;75.11
23172;BME280;11754;42.664;23.594;2022-08-11T04:40:11;95557.41;;;18.38;75.10
23172;BME280;11754;42.664;23.594;2022-08-11T05:07:12;95557.69;;;19.25;72.94
23172;BME280;11754;42.664;23.594;2022-08-11T05:15:20;95554.38;;;19.55;71.83
23172;BME280;11754;42.664;23.594;2022-08-11T05:18:19;95555.31;;;19.67;71.61
23172;BME280;11754;42.664;23.594;2022-08-11T05:21:09;95552.75;;;19.72;71.30
23172;BME280;11754;42.664;23.594;2022-08-11T05:24:06;95544.00;;;19.83;70.92
23172;BME280;11754;42.664;23.594;2022-08-11T05:26:56;95545.06;;;20.01;70.47
23172;BME280;11754;42.664;23.594;2022-08-11T05:29:56;95555.38;;;19.97;70.73
23172;BME280;11754;42.664;23.594;2022-08-11T05:32:44;95551.31;;;19.95;70.45
23172;BME280;11754;42.664;23.594;2022-08-11T05:35:41;95542.97;;;20.03;70.43
23172;BME280;11754;42.664;23.594;2022-08-11T05:38:17;95549.38;;;20.20;69.90
23172;BME280;11754;42.664;23.594;2022-08-11T05:41:04;95547.19;;;20.29;69.65
23172;BME280;11754;42.664;23.594;2022-08-11T05:43:50;95528.94;;;20.37;69.48
23172;BME280;11754;42.664;23.594;2022-08-11T05:46:40;95547.41;;;20.46;69.28
23172;BME280;11754;42.664;23.594;2022-08-11T05:49:28;95542.72;;;20.59;68.79
23172;BME280;11754;42.664;23.594;2022-08-11T05:52:48;95543.09;;;20.63;68.66
23172;BME280;11754;42.664;23.594;2022-08-11T05:55:25;95540.16;;;20.64;68.91
23172;BME280;11754;42.664;23.594;2022-08-11T05:58:10;95539.31;;;20.52;69.33
23172;BME280;11754;42.664;23.594;2022-08-11T06:00:45;95546.97;;;20.49;69.64
23172;BME280;11754;42.664;23.594;2022-08-11T06:03:11;95536.63;;;20.34;70.09
23172;BME280;11754;42.664;23.594;2022-08-11T06:05:46;95530.31;;;20.28;70.36
23172;BME280;11754;42.664;23.594;2022-08-11T06:08:12;95536.41;;;20.35;70.58
23172;BME280;11754;42.664;23.594;2022-08-11T06:10:40;95534.91;;;20.58;70.24
23172;BME280;11754;42.664;23.594;2022-08-11T06:13:07;95531.13;;;20.77;69.52
23172;BME280;11754;42.664;23.594;2022-08-11T06:15:43;95532.78;;;20.90;68.70
23172;BME280;11754;42.664;23.594;2022-08-11T06:18:10;95531.28;;;21.06;67.17
23172;BME280;11754;42.664;23.594;2022-08-11T06:20:46;95527.00;;;21.17;66.73
23172;BME280;11754;42.664;23.594;2022-08-11T06:23:12;95527.53;;;21.37;66.37
23172;BME280;11754;42.664;23.594;2022-08-11T06:25:39;95524.28;;;21.47;66.20
23172;BME280;11754;42.664;23.594;2022-08-11T06:28:06;95522.28;;;21.54;65.20
23172;BME280;11754;42.664;23.594;2022-08-11T06:30:38;95533.38;;;21.69;64.38
23172;BME280;11754;42.664;23.594;2022-08-11T06:33:17;95523.00;;;21.61;64.17
23172;BME280;11754;42.664;23.594;2022-08-11T06:38:37;95529.47;;;22.12;63.55
23172;BME280;11754;42.664;23.594;2022-08-11T06:41:26;95524.88;;;22.36;62.29
23172;BME280;11754;42.664;23.594;2022-08-11T06:44:21;95523.34;;;22.40;61.07
23172;BME280;11754;42.664;23.594;2022-08-11T06:46:50;95527.13;;;22.56;61.05
23172;BME280;11754;42.664;23.594;2022-08-11T06:49:18;95529.94;;;22.78;60.62
23172;BME280;11754;42.664;23.594;2022-08-11T06:52:06;95526.16;;;22.91;59.66
23172;BME280;11754;42.664;23.594;2022-08-11T06:54:35;95525.38;;;23.07;58.86
23172;BME280;11754;42.664;23.594;2022-08-11T06:57:02;95530.03;;;23.29;58.65
23172;BME280;11754;42.664;23.594;2022-08-11T06:59:46;95523.44;;;23.36;58.21
23172;BME280;11754;42.664;23.594;2022-08-11T07:02:32;95527.91;;;23.64;58.15
23172;BME280;11754;42.664;23.594;2022-08-11T07:05:01;95520.63;;;23.82;57.16
23172;BME280;11754;42.664;23.594;2022-08-11T07:10:46;95525.56;;;24.29;54.53
23172;BME280;11754;42.664;23.594;2022-08-11T07:23:37;95517.41;;;24.67;51.21
23172;BME280;11754;42.664;23.594;2022-08-11T07:26:24;95532.66;;;24.35;50.97
23172;BME280;11754;42.664;23.594;2022-08-11T07:29:10;95510.00;;;24.36;51.03
23172;BME280;11754;42.664;23.594;2022-08-11T07:31:49;95506.00;;;24.60;51.95
23172;BME280;11754;42.664;23.594;2022-08-11T07:34:27;95522.31;;;25.03;49.61
23172;BME280;11754;42.664;23.594;2022-08-11T07:36:56;95521.16;;;25.21;50.24
23172;BME280;11754;42.664;23.594;2022-08-11T07:39:35;95515.41;;;25.44;49.26
23172;BME280;11754;42.664;23.594;2022-08-11T07:42:10;95521.69;;;25.55;47.63
23172;BME280;11754;42.664;23.594;2022-08-11T07:44:36;95499.38;;;25.64;47.17
23172;BME280;11754;42.664;23.594;2022-08-11T07:47:25;95494.16;;;25.95;47.15
23172;BME280;11754;42.664;23.594;2022-08-11T07:50:10;95501.59;;;26.30;46.31
23172;BME280;11754;42.664;23.594;2022-08-11T07:52:56;95503.56;;;26.45;45.62
23172;BME280;11754;42.664;23.594;2022-08-11T07:55:23;95506.88;;;26.68;45.21
23172;BME280;11754;42.664;23.594;2022-08-11T07:57:50;95503.16;;;26.99;44.28
23172;BME280;11754;42.664;23.594;2022-08-11T08:00:44;95485.00;;;26.84;43.73
23172;BME280;11754;42.664;23.594;2022-08-11T08:03:29;95506.44;;;27.22;43.79
23172;BME280;11754;42.664;23.594;2022-08-11T08:06:15;95505.84;;;27.04;44.40
23172;BME280;11754;42.664;23.594;2022-08-11T08:09:00;95502.38;;;27.09;43.82
23172;BME280;11754;42.664;23.594;2022-08-11T08:11:45;95489.09;;;27.53;43.46
23172;BME280;11754;42.664;23.594;2022-08-11T08:14:30;95498.75;;;28.06;42.51
23172;BME280;11754;42.664;23.594;2022-08-11T08:17:15;95504.13;;;28.26;40.81
23172;BME280;11754;42.664;23.594;2022-08-11T08:19:59;95494.78;;;28.58;41.10
23172;BME280;11754;42.664;23.594;2022-08-11T08:22:25;95498.88;;;29.05;40.50
23172;BME280;11754;42.664;23.594;2022-08-11T08:24:52;95495.78;;;29.51;39.82
23172;BME280;11754;42.664;23.594;2022-08-11T08:27:19;95481.03;;;29.62;38.06
23172;BME280;11754;42.664;23.594;2022-08-11T08:29:46;95484.06;;;29.84;37.53
23172;BME280;11754;42.664;23.594;2022-08-11T08:32:30;95476.56;;;30.48;36.74
23172;BME280;11754;42.664;23.594;2022-08-11T08:34:57;95470.56;;;30.89;35.45
23172;BME280;11754;42.664;23.594;2022-08-11T08:37:24;95472.66;;;31.11;34.89
23172;BME280;11754;42.664;23.594;2022-08-11T08:39:51;95482.75;;;31.10;34.66
23172;BME280;11754;42.664;23.594;2022-08-11T08:42:20;95465.19;;;31.03;34.29
23172;BME280;11754;42.664;23.594;2022-08-11T08:44:52;95480.09;;;30.49;35.34
23172;BME280;11754;42.664;23.594;2022-08-11T08:47:21;95469.75;;;30.88;35.05
23172;BME280;11754;42.664;23.594;2022-08-11T08:49:50;95466.28;;;31.53;34.78
23172;BME280;11754;42.664;23.594;2022-08-11T08:52:22;95460.63;;;32.10;33.62
23172;BME280;11754;42.664;23.594;2022-08-11T08:54:51;95460.41;;;32.48;32.69
23172;BME280;11754;42.664;23.594;2022-08-11T08:57:22;95456.63;;;32.71;32.19
23172;BME280;11754;42.664;23.594;2022-08-11T08:59:49;95458.81;;;33.19;31.42
23172;BME280;11754;42.664;23.594;2022-08-11T09:02:22;95462.03;;;33.44;30.13
23172;BME280;11754;42.664;23.594;2022-08-11T09:04:48;95440.81;;;32.46;30.42
23172;BME280;11754;42.664;23.594;2022-08-11T09:07:19;95457.97;;;32.33;31.11
23172;BME280;11754;42.664;23.594;2022-08-11T09:09:50;95464.56;;;32.82;31.84
23172;BME280;11754;42.664;23.594;2022-08-11T09:12:18;95448.19;;;33.40;30.58
23172;BME280;11754;42.664;23.594;2022-08-11T09:14:47;95442.03;;;34.37;29.24
23172;BME280;11754;42.664;23.594;2022-08-11T09:17:27;95442.16;;;35.06;28.03
23172;BME280;11754;42.664;23.594;2022-08-11T09:20:32;95443.44;;;35.35;27.82
23172;BME280;11754;42.664;23.594;2022-08-11T09:23:04;95430.53;;;34.66;28.26
23172;BME280;11754;42.664;23.594;2022-08-11T09:25:51;95430.84;;;34.99;27.52
23172;BME280;11754;42.664;23.594;2022-08-11T09:28:36;95439.72;;;35.22;27.65
23172;BME280;11754;42.664;23.594;2022-08-11T09:31:02;95437.13;;;35.43;27.13
23172;BME280;11754;42.664;23.594;2022-08-11T09:33:30;95423.72;;;35.97;26.73
23172;BME280;11754;42.664;23.594;2022-08-11T09:35:57;95435.91;;;36.55;26.12
23172;BME280;11754;42.664;23.594;2022-08-11T09:38:44;95414.63;;;37.15;24.96
23172;BME280;11754;42.664;23.594;2022-08-11T09:41:28;95427.72;;;37.51;24.73
23172;BME280;11754;42.664;23.594;2022-08-11T09:43:55;95419.56;;;38.13;24.11
23172;BME280;11754;42.664;23.594;2022-08-11T09:46:38;95416.38;;;39.00;23.29
23172;BME280;11754;42.664;23.594;2022-08-11T09:49:05;95409.75;;;39.89;22.39
23172;BME280;11754;42.664;23.594;2022-08-11T09:51:32;95402.91;;;41.01;20.94
23172;BME280;11754;42.664;23.594;2022-08-11T09:54:04;95402.97;;;43.52;18.65
23172;BME280;11754;42.664;23.594;2022-08-11T09:56:33;95399.63;;;45.67;16.97
23172;BME280;11754;42.664;23.594;2022-08-11T09:59:20;95389.31;;;46.18;15.82
23172;BME280;11754;42.664;23.594;2022-08-11T10:01:48;95379.75;;;46.19;15.72
23172;BME280;11754;42.664;23.594;2022-08-11T10:04:16;95382.97;;;46.07;15.85
23172;BME280;11754;42.664;23.594;2022-08-11T10:06:44;95382.78;;;45.28;16.07
23172;BME280;11754;42.664;23.594;2022-08-11T10:12:33;95381.22;;;45.34;16.76
23172;BME280;11754;42.664;23.594;2022-08-11T10:15:06;95374.81;;;47.09;15.38
23172;BME280;11754;42.664;23.594;2022-08-11T10:17:56;95376.03;;;47.08;14.96
23172;BME280;11754;42.664;23.594;2022-08-11T10:20:44;95369.41;;;50.58;12.40
23172;BME280;11754;42.664;23.594;2022-08-11T10:23:14;95365.72;;;54.45;10.69
23172;BME280;11754;42.664;23.594;2022-08-11T10:25:58;95352.88;;;57.17;8.47
23172;BME280;11754;42.664;23.594;2022-08-11T10:28:43;95350.59;;;59.32;8.09
23172;BME280;11754;42.664;23.594;2022-08-11T10:31:09;95342.38;;;61.59;6.93
23172;BME280;11754;42.664;23.594;2022-08-11T10:33:53;95350.34;;;62.29;6.33
23172;BME280;11754;42.664;23.594;2022-08-11T10:36:30;95344.25;;;63.52;5.86
23172;BME280;11754;42.664;23.594;2022-08-11T10:38:57;95348.91;;;62.45;5.42
23172;BME280;11754;42.664;23.594;2022-08-11T10:41:25;95331.22;;;63.34;5.36
23172;BME280;11754;42.664;23.594;2022-08-11T10:44:10;95329.88;;;64.72;5.12
23172;BME280;11754;42.664;23.594;2022-08-11T10:46:38;95329.13;;;63.63;5.93
23172;BME280;11754;42.664;23.594;2022-08-11T10:49:24;95327.69;;;62.63;5.41
23172;BME280;11754;42.664;23.594;2022-08-11T10:51:50;95324.63;;;64.18;5.27
23172;BME280;11754;42.664;23.594;2022-08-11T10:54:35;95326.88;;;65.66;4.96
23172;BME280;11754;42.664;23.594;2022-08-11T10:57:22;95338.44;;;67.29;4.40
23172;BME280;11754;42.664;23.594;2022-08-11T11:00:09;95308.81;;;65.06;4.65
23172;BME280;11754;42.664;23.594;2022-08-11T11:02:40;95294.59;;;59.38;6.87
23172;BME280;11754;42.664;23.594;2022-08-11T11:10:54;95309.22;;;54.23;10.11
23172;BME280;11754;42.664;23.594;2022-08-11T11:13:20;95301.84;;;58.41;7.92
23172;BME280;11754;42.664;23.594;2022-08-11T11:16:06;95304.00;;;58.46;7.40
23172;BME280;11754;42.664;23.594;2022-08-11T11:18:51;95295.88;;;56.97;8.41
23172;BME280;11754;42.664;23.594;2022-08-11T11:21:19;95307.75;;;58.52;7.66
23172;BME280;11754;42.664;23.594;2022-08-11T11:29:45;95313.41;;;51.31;10.98
23172;BME280;11754;42.664;23.594;2022-08-11T11:35:03;95323.84;;;46.98;15.16
23172;BME280;11754;42.664;23.594;2022-08-11T11:37:34;95324.41;;;45.49;16.49
23172;BME280;11754;42.664;23.594;2022-08-11T11:40:05;95323.13;;;45.29;16.75
23172;BME280;11754;42.664;23.594;2022-08-11T11:42:34;95317.72;;;49.89;13.64
23172;BME280;11754;42.664;23.594;2022-08-11T11:45:01;95317.88;;;55.29;10.16
23172;BME280;11754;42.664;23.594;2022-08-11T11:47:29;95309.22;;;58.23;8.12
23172;BME280;11754;42.664;23.594;2022-08-11T11:49:55;95312.97;;;60.89;6.90
23172;BME280;11754;42.664;23.594;2022-08-11T11:52:21;95318.44;;;62.96;5.92
23172;BME280;11754;42.664;23.594;2022-08-11T11:54:51;95318.63;;;64.74;5.49
23172;BME280;11754;42.664;23.594;2022-08-11T11:57:20;95321.03;;;66.27;4.47
23172;BME280;11754;42.664;23.594;2022-08-11T12:00:07;95323.16;;;67.34;4.03
23172;BME280;11754;42.664;23.594;2022-08-11T12:02:51;95325.44;;;68.00;4.13
23172;BME280;11754;42.664;23.594;2022-08-11T12:05:18;95321.25;;;68.75;3.57
23172;BME280;11754;42.664;23.594;2022-08-11T12:07:44;95312.34;;;69.20;3.55
23172;BME280;11754;42.664;23.594;2022-08-11T12:10:29;95308.31;;;69.86;3.80
23172;BME280;11754;42.664;23.594;2022-08-11T12:12:58;95302.03;;;70.76;3.45
23172;BME280;11754;42.664;23.594;2022-08-11T12:15:45;95298.66;;;70.49;2.93
23172;BME280;11754;42.664;23.594;2022-08-11T12:18:10;95296.91;;;70.46;3.21
23172;BME280;11754;42.664;23.594;2022-08-11T12:20:36;95299.56;;;70.88;2.56
23172;BME280;11754;42.664;23.594;2022-08-11T12:23:03;95295.59;;;71.21;2.39
23172;BME280;11754;42.664;23.594;2022-08-11T12:25:47;95278.47;;;71.39;2.34
23172;BME280;11754;42.664;23.594;2022-08-11T12:28:31;95285.75;;;72.01;2.08
23172;BME280;11754;42.664;23.594;2022-08-11T12:30:58;95279.94;;;72.01;1.79
23172;BME280;11754;42.664;23.594;2022-08-11T12:33:24;95278.31;;;72.23;1.84
23172;BME280;11754;42.664;23.594;2022-08-11T12:35:55;95270.72;;;72.51;2.05
23172;BME280;11754;42.664;23.594;2022-08-11T12:38:22;95283.03;;;72.91;1.80
23172;BME280;11754;42.664;23.594;2022-08-11T12:40:49;95278.66;;;73.15;1.83
23172;BME280;11754;42.664;23.594;2022-08-11T12:43:33;95282.88;;;73.65;1.91
23172;BME280;11754;42.664;23.594;2022-08-11T12:46:22;95280.28;;;73.94;1.55
23172;BME280;11754;42.664;23.594;2022-08-11T12:48:54;95268.91;;;74.05;1.15
23172;BME280;11754;42.664;23.594;2022-08-11T12:51:41;95271.97;;;73.90;1.61
23172;BME280;11754;42.664;23.594;2022-08-11T12:54:33;95265.25;;;69.47;2.17
23172;BME280;11754;42.664;23.594;2022-08-11T12:57:02;95257.44;;;65.92;3.41
23172;BME280;11754;42.664;23.594;2022-08-11T12:59:48;95262.25;;;67.17;3.75
23172;BME280;11754;42.664;23.594;2022-08-11T13:02:33;95249.44;;;64.59;4.77
23172;BME280;11754;42.664;23.594;2022-08-11T13:05:17;95251.13;;;61.27;5.71
23172;BME280;11754;42.664;23.594;2022-08-11T13:07:46;95248.16;;;59.61;6.41
23172;BME280;11754;42.664;23.594;2022-08-11T13:10:14;95258.34;;;61.60;5.76
23172;BME280;11754;42.664;23.594;2022-08-11T13:13:03;95264.91;;;64.81;4.69
23172;BME280;11754;42.664;23.594;2022-08-11T13:15:29;95249.41;;;66.29;3.76
23172;BME280;11754;42.664;23.594;2022-08-11T13:17:55;95277.09;;;67.66;3.38
23172;BME280;11754;42.664;23.594;2022-08-11T13:20:23;95265.63;;;68.67;2.83
23172;BME280;11754;42.664;23.594;2022-08-11T13:22:53;95260.19;;;68.97;3.45
23172;BME280;11754;42.664;23.594;2022-08-11T13:25:24;95252.19;;;70.03;2.35
23172;BME280;11754;42.664;23.594;2022-08-11T13:27:55;95255.63;;;70.97;2.33
23172;BME280;11754;42.664;23.594;2022-08-11T13:30:22;95256.78;;;71.70;1.74
23172;BME280;11754;42.664;23.594;2022-08-11T13:33:08;95253.13;;;71.93;1.66
23172;BME280;11754;42.664;23.594;2022-08-11T13:35:35;95256.84;;;72.34;2.01
23172;BME280;11754;42.664;23.594;2022-08-11T13:38:01;95237.16;;;72.73;1.42
23172;BME280;11754;42.664;23.594;2022-08-11T13:40:28;95241.00;;;72.75;1.25
23172;BME280;11754;42.664;23.594;2022-08-11T13:42:55;95231.75;;;72.29;1.90
23172;BME280;11754;42.664;23.594;2022-08-11T13:45:24;95228.66;;;71.25;2.32
23172;BME280;11754;42.664;23.594;2022-08-11T13:47:55;95223.13;;;69.02;2.66
23172;BME280;11754;42.664;23.594;2022-08-11T13:50:23;95218.06;;;63.45;4.30
23172;BME280;11754;42.664;23.594;2022-08-11T13:53:09;95236.53;;;58.95;6.56
23172;BME280;11754;42.664;23.594;2022-08-11T13:55:38;95235.78;;;58.55;6.65
23172;BME280;11754;42.664;23.594;2022-08-11T13:58:04;95235.38;;;57.85;7.10
23172;BME280;11754;42.664;23.594;2022-08-11T14:00:30;95241.47;;;56.10;7.92
23172;BME280;11754;42.664;23.594;2022-08-11T14:02:56;95240.06;;;53.20;9.26
23172;BME280;11754;42.664;23.594;2022-08-11T14:05:27;95242.00;;;51.28;10.32
23172;BME280;11754;42.664;23.594;2022-08-11T14:07:59;95232.50;;;49.32;11.84
23172;BME280;11754;42.664;23.594;2022-08-11T14:10:27;95244.84;;;47.08;12.84
23172;BME280;11754;42.664;23.594;2022-08-11T14:12:59;95248.41;;;45.77;13.48
23172;BME280;11754;42.664;23.594;2022-08-11T14:15:45;95259.56;;;44.33;14.77
23172;BME280;11754;42.664;23.594;2022-08-11T14:20:41;95261.91;;;42.27;16.28
23172;BME280;11754;42.664;23.594;2022-08-11T14:23:28;95263.44;;;41.25;17.62
23172;BME280;11754;42.664;23.594;2022-08-11T14:25:55;95271.16;;;40.54;17.94
23172;BME280;11754;42.664;23.594;2022-08-11T14:28:40;95254.16;;;39.81;18.50
23172;BME280;11754;42.664;23.594;2022-08-11T14:31:06;95267.66;;;39.23;19.04
23172;BME280;11754;42.664;23.594;2022-08-11T14:33:33;95254.94;;;38.46;19.29
23172;BME280;11754;42.664;23.594;2022-08-11T14:36:02;95268.13;;;38.01;19.87
23172;BME280;11754;42.664;23.594;2022-08-11T14:38:32;95263.31;;;37.61;19.97
23172;BME280;11754;42.664;23.594;2022-08-11T14:40:59;95249.97;;;37.14;20.88
23172;BME280;11754;42.664;23.594;2022-08-11T14:43:52;95253.09;;;36.79;21.76
23172;BME280;11754;42.664;23.594;2022-08-11T14:46:53;95267.28;;;36.48;21.49
23172;BME280;11754;42.664;23.594;2022-08-11T14:49:33;95267.88;;;36.12;21.67
23172;BME280;11754;42.664;23.594;2022-08-11T14:52:02;95266.09;;;35.86;21.87
23172;BME280;11754;42.664;23.594;2022-08-11T14:54:29;95257.75;;;35.74;22.42
23172;BME280;11754;42.664;23.594;2022-08-11T14:57:15;95262.53;;;35.18;23.35
23172;BME280;11754;42.664;23.594;2022-08-11T14:59:44;95257.72;;;34.97;24.11
23172;BME280;11754;42.664;23.594;2022-08-11T15:02:12;95273.88;;;34.90;23.84
23172;BME280;11754;42.664;23.594;2022-08-11T15:04:58;95268.72;;;34.80;24.36
23172;BME280;11754;42.664;23.594;2022-08-11T15:07:25;95268.75;;;34.45;24.73
23172;BME280;11754;42.664;23.594;2022-08-11T15:10:02;95263.28;;;34.10;25.23
23172;BME280;11754;42.664;23.594;2022-08-11T15:12:29;95261.66;;;34.01;25.25
23172;BME280;11754;42.664;23.594;2022-08-11T15:14:55;95274.31;;;33.79;25.75
23172;BME280;11754;42.664;23.594;2022-08-11T15:17:40;95271.91;;;33.29;26.05
23172;BME280;11754;42.664;23.594;2022-08-11T15:20:09;95260.25;;;32.84;26.80
23172;BME280;11754;42.664;23.594;2022-08-11T15:22:53;95275.34;;;32.59;27.28
23172;BME280;11754;42.664;23.594;2022-08-11T15:25:39;95277.88;;;32.33;27.55
23172;BME280;11754;42.664;23.594;2022-08-11T15:28:09;95277.13;;;32.04;27.91
23172;BME280;11754;42.664;23.594;2022-08-11T15:30:55;95259.91;;;31.95;27.82
23172;BME280;11754;42.664;23.594;2022-08-11T15:33:42;95259.81;;;31.87;27.91
23172;BME280;11754;42.664;23.594;2022-08-11T15:36:29;95263.84;;;31.75;28.40
23172;BME280;11754;42.664;23.594;2022-08-11T15:39:37;95269.13;;;31.58;28.89
23172;BME280;11754;42.664;23.594;2022-08-11T15:42:23;95269.63;;;31.46;28.73
23172;BME280;11754;42.664;23.594;2022-08-11T15:45:08;95265.69;;;31.39;28.92
23172;BME280;11754;42.664;23.594;2022-08-11T15:47:58;95246.41;;;31.21;28.92
23172;BME280;11754;42.664;23.594;2022-08-11T15:50:29;95267.88;;;31.09;29.19
23172;BME280;11754;42.664;23.594;2022-08-11T15:53:02;95253.53;;;30.90;29.08
23172;BME280;11754;42.664;23.594;2022-08-11T15:55:29;95266.19;;;31.13;28.88
23172;BME280;11754;42.664;23.594;2022-08-11T15:57:58;95261.47;;;31.32;28.92
23172;BME280;11754;42.664;23.594;2022-08-11T16:00:45;95265.09;;;31.42;28.65
23172;BME280;11754;42.664;23.594;2022-08-11T16:03:34;95255.19;;;31.46;28.80
23172;BME280;11754;42.664;23.594;2022-08-11T16:06:19;95272.34;;;31.60;28.71
23172;BME280;11754;42.664;23.594;2022-08-11T16:08:46;95274.56;;;31.58;28.61
23172;BME280;11754;42.664;23.594;2022-08-11T16:11:12;95263.06;;;31.33;28.97
23172;BME280;11754;42.664;23.594;2022-08-11T16:13:39;95269.00;;;31.22;28.88
23172;BME280;11754;42.664;23.594;2022-08-11T16:16:05;95277.34;;;30.98;29.43
23172;BME280;11754;42.664;23.594;2022-08-11T16:18:56;95284.47;;;30.61;29.89
23172;BME280;11754;42.664;23.594;2022-08-11T16:21:32;95274.81;;;30.55;30.00
23172;BME280;11754;42.664;23.594;2022-08-11T16:24:00;95272.31;;;30.39;30.28
23172;BME280;11754;42.664;23.594;2022-08-11T16:26:28;95273.13;;;30.02;30.64
23172;BME280;11754;42.664;23.594;2022-08-11T16:28:56;95278.84;;;29.82;30.75
23172;BME280;11754;42.664;23.594;2022-08-11T16:31:23;95277.84;;;29.54;31.04
23172;BME280;11754;42.664;23.594;2022-08-11T16:33:50;95273.38;;;29.39;31.57
23172;BME280;11754;42.664;23.594;2022-08-11T16:36:17;95275.25;;;29.19;31.83
23172;BME280;11754;42.664;23.594;2022-08-11T16:39:03;95289.75;;;29.10;32.69
23172;BME280;11754;42.664;23.594;2022-08-11T16:41:34;95283.63;;;28.94;32.64
23172;BME280;11754;42.664;23.594;2022-08-11T16:44:19;95286.97;;;28.86;33.03
23172;BME280;11754;42.664;23.594;2022-08-11T16:47:05;95298.19;;;28.74;33.01
23172;BME280;11754;42.664;23.594;2022-08-11T16:49:35;95291.91;;;28.49;33.11
23172;BME280;11754;42.664;23.594;2022-08-11T16:52:03;95297.94;;;28.36;33.45
23172;BME280;11754;42.664;23.594;2022-08-11T16:54:33;95288.53;;;28.23;33.76